Time;durP1;ratioP1;P1;durP2;ratioP2;P2;SDS_P1;SDS_P2;PMS_P1;PMS_P2;Temp;Humidity;BMP_temperature;BMP_pressure;BME280_temperature;BME280_humidity;BME280_pressure;Samples;Min_cycle;Max_cycle;Signal;HPM_P1;HPM_P2
2023/05/25 00:01:42;;;;;;;16.52;3.53;;;;;;;11.93;100.00;102365.22;4989055;28;20419;-66
2023/05/25 00:04:09;;;;;;;19.45;4.28;;;;;;;11.88;100.00;102361.78;4989403;28;20046;-66
2023/05/25 00:06:39;;;;;;;18.23;4.70;;;;;;;11.75;100.00;102352.38;4990056;28;20050;-67
2023/05/25 00:09:06;;;;;;;19.08;4.40;;;;;;;11.84;100.00;102353.97;4990173;28;20043;-67
2023/05/25 00:11:33;;;;;;;18.20;4.65;;;;;;;11.86;100.00;102357.44;4991806;28;20141;-66
2023/05/25 00:14:00;;;;;;;18.45;3.60;;;;;;;11.97;100.00;102366.03;4991202;28;20144;-67
2023/05/25 00:16:27;;;;;;;18.65;4.40;;;;;;;12.00;100.00;102352.84;4990721;28;20050;-66
2023/05/25 00:18:56;;;;;;;20.80;4.75;;;;;;;11.89;100.00;102363.50;4991183;28;20128;-66
2023/05/25 00:21:24;;;;;;;23.30;5.22;;;;;;;11.69;100.00;102348.09;4978455;28;20042;-66
2023/05/25 00:23:51;;;;;;;23.58;5.20;;;;;;;11.53;100.00;102363.22;4971180;28;20054;-66
2023/05/25 00:26:18;;;;;;;20.70;4.90;;;;;;;11.49;100.00;102369.41;4989104;28;20054;-67
2023/05/25 00:28:44;;;;;;;26.58;5.60;;;;;;;11.06;100.00;102367.38;4990616;28;20527;-67
2023/05/25 00:31:11;;;;;;;17.85;4.40;;;;;;;11.15;100.00;102375.13;4991773;28;20046;-66
2023/05/25 00:33:38;;;;;;;19.60;4.25;;;;;;;11.39;100.00;102384.41;4991696;28;20367;-67
2023/05/25 00:36:05;;;;;;;22.00;4.95;;;;;;;11.45;100.00;102380.81;4990943;28;20177;-65
2023/05/25 00:38:32;;;;;;;23.60;5.07;;;;;;;11.37;100.00;102372.22;4991522;28;20520;-65
2023/05/25 00:40:59;;;;;;;19.58;4.25;;;;;;;11.45;100.00;102366.84;4991341;28;20056;-65
2023/05/25 00:43:26;;;;;;;22.45;4.28;;;;;;;11.52;100.00;102373.72;4991477;28;20391;-66
2023/05/25 00:45:53;;;;;;;20.90;4.93;;;;;;;11.40;100.00;102377.38;4990352;28;20141;-66
2023/05/25 00:48:20;;;;;;;26.10;5.45;;;;;;;11.01;100.00;102377.94;4991480;28;20050;-67
2023/05/25 00:50:47;;;;;;;25.08;4.85;;;;;;;10.79;100.00;102382.59;4974939;28;20472;-67
2023/05/25 00:53:14;;;;;;;17.55;4.43;;;;;;;11.08;100.00;102372.59;4971124;28;20060;-66
2023/05/25 00:55:52;;;;;;;18.75;4.20;;;;;;;11.20;100.00;102383.78;4988979;28;20050;-66
2023/05/25 00:58:20;;;;;;;22.83;5.32;;;;;;;11.24;100.00;102392.47;4991084;28;20480;-66
2023/05/25 01:00:49;;;;;;;23.50;4.53;;;;;;;11.23;100.00;102395.16;4989963;28;20054;-66
2023/05/25 01:03:21;;;;;;;21.58;4.45;;;;;;;11.09;100.00;102383.09;4990684;28;20078;-67
2023/05/25 01:05:53;;;;;;;19.48;4.90;;;;;;;11.06;100.00;102388.34;4990591;28;20054;-65
2023/05/25 01:08:22;;;;;;;22.38;4.68;;;;;;;11.10;100.00;102400.56;4991419;28;20054;-67
2023/05/25 01:10:50;;;;;;;39.50;6.65;;;;;;;10.74;100.00;102394.88;4991217;28;20046;-67
2023/05/25 01:13:19;;;;;;;19.60;4.93;;;;;;;10.73;100.00;102389.63;4991114;28;20069;-67
2023/05/25 01:15:47;;;;;;;21.08;3.53;;;;;;;11.02;100.00;102387.53;4988462;28;20082;-67
2023/05/25 01:18:14;;;;;;;24.85;5.65;;;;;;;10.96;100.00;102400.72;4989390;28;20054;-66
2023/05/25 01:21:11;;;;;;;11.30;3.70;;;;;;;10.95;100.00;102398.13;4989816;28;20050;-66
2023/05/25 01:23:49;;;;;;;18.05;4.25;;;;;;;10.91;100.00;102402.53;4989957;28;20057;-67
2023/05/25 01:26:18;;;;;;;18.50;4.32;;;;;;;10.82;100.00;102400.91;4989669;28;20052;-67
2023/05/25 01:28:50;;;;;;;16.77;4.25;;;;;;;10.82;100.00;102394.78;4990532;28;20058;-66
2023/05/25 01:31:21;;;;;;;22.40;4.85;;;;;;;10.40;100.00;102399.63;4991110;28;20100;-66
2023/05/25 01:33:52;;;;;;;17.60;4.35;;;;;;;10.35;100.00;102410.13;4975161;28;20491;-66
2023/05/25 01:36:19;;;;;;;21.55;4.38;;;;;;;10.57;100.00;102395.06;4989548;28;20081;-65
2023/05/25 01:38:47;;;;;;;17.25;4.20;;;;;;;10.77;100.00;102393.97;4977092;28;20053;-66
2023/05/25 01:41:14;;;;;;;15.93;3.92;;;;;;;10.82;100.00;102397.41;4990747;28;20050;-67
2023/05/25 01:43:41;;;;;;;14.52;4.03;;;;;;;10.80;100.00;102399.16;4990589;28;20492;-66
2023/05/25 01:46:22;;;;;;;16.80;4.45;;;;;;;10.55;100.00;102369.78;4979443;28;20105;-66
2023/05/25 01:49:01;;;;;;;20.80;5.32;;;;;;;10.34;100.00;102411.03;4974436;28;20049;-67
2023/05/25 01:51:42;;;;;;;19.65;4.32;;;;;;;10.21;100.00;102415.47;4984686;28;20140;-65
2023/05/25 01:54:43;;;;;;;16.27;3.60;;;;;;;10.48;100.00;102403.00;4990241;28;20055;-66
2023/05/25 01:57:14;;;;;;;21.80;3.60;;;;;;;10.55;100.00;102401.19;4973438;28;20073;-66
2023/05/25 01:59:45;;;;;;;23.27;4.85;;;;;;;10.69;100.00;102401.91;4989764;28;20054;-66
2023/05/25 02:02:17;;;;;;;19.02;4.72;;;;;;;10.53;100.00;102402.97;4990087;28;20642;-66
2023/05/25 02:04:45;;;;;;;22.35;4.97;;;;;;;10.30;100.00;102413.66;4989609;28;20046;-65
2023/05/25 02:07:24;;;;;;;18.00;4.13;;;;;;;10.08;100.00;102419.09;4989443;28;20136;-66
2023/05/25 02:09:52;;;;;;;15.63;3.97;;;;;;;9.92;100.00;102418.34;4993611;28;20082;-65
2023/05/25 02:12:18;;;;;;;15.70;4.43;;;;;;;10.14;100.00;102420.78;4979698;28;20369;-66
2023/05/25 02:14:47;;;;;;;15.27;3.97;;;;;;;10.36;100.00;102421.50;4988677;28;20042;-67
2023/05/25 02:17:16;;;;;;;17.02;4.32;;;;;;;10.26;100.00;102420.66;4997229;28;20463;-66
2023/05/25 02:19:57;;;;;;;18.33;4.80;;;;;;;10.25;100.00;102419.81;4973344;28;20393;-67
2023/05/25 02:22:37;;;;;;;16.15;4.20;;;;;;;9.60;100.00;102400.28;4966909;28;20567;-67
2023/05/25 02:25:05;;;;;;;19.02;4.63;;;;;;;10.08;100.00;102421.69;4983961;28;20049;-67
2023/05/25 02:27:32;;;;;;;17.23;3.95;;;;;;;10.17;100.00;102410.28;4988784;28;20053;-66
2023/05/25 02:29:59;;;;;;;15.40;4.68;;;;;;;10.26;100.00;102413.66;4989802;28;20050;-66
2023/05/25 02:32:28;;;;;;;19.63;4.85;;;;;;;10.36;100.00;102418.88;4994106;28;20053;-67
2023/05/25 02:34:55;;;;;;;17.95;4.15;;;;;;;10.41;100.00;102422.28;4989361;28;20656;-65
2023/05/25 02:37:22;;;;;;;23.00;4.05;;;;;;;10.29;100.00;102420.66;4989811;28;20050;-66
2023/05/25 02:39:49;;;;;;;14.30;3.58;;;;;;;10.43;100.00;102426.66;4990215;28;20048;-67
2023/05/25 02:42:15;;;;;;;16.58;3.50;;;;;;;10.44;100.00;102417.88;4990037;28;20054;-65
2023/05/25 02:44:47;;;;;;;19.40;4.28;;;;;;;10.36;100.00;102411.03;4988731;28;20404;-65
2023/05/25 02:47:17;;;;;;;18.98;4.93;;;;;;;10.07;100.00;102431.31;4989809;28;20141;-67
2023/05/25 02:49:44;;;;;;;16.88;4.55;;;;;;;9.96;100.00;102430.50;4989706;28;20056;-67
2023/05/25 02:52:12;;;;;;;16.38;3.58;;;;;;;10.21;100.00;102425.94;4992719;28;20065;-66
2023/05/25 02:54:39;;;;;;;13.77;3.60;;;;;;;10.34;100.00;102424.13;4983963;28;20054;-66
2023/05/25 02:57:07;;;;;;;19.50;4.15;;;;;;;10.37;100.00;102425.84;4993503;28;20141;-66
2023/05/25 02:59:34;;;;;;;19.42;4.65;;;;;;;10.27;100.00;102427.66;4993079;28;20062;-66
2023/05/25 03:02:01;;;;;;;17.75;3.35;;;;;;;10.11;100.00;102420.78;5004730;28;20054;-66
2023/05/25 03:04:29;;;;;;;15.45;4.30;;;;;;;9.97;100.00;102432.25;4992425;28;20129;-66
2023/05/25 03:06:56;;;;;;;18.80;4.47;;;;;;;9.52;100.00;102421.22;4984405;28;20090;-67
2023/05/25 03:09:32;;;;;;;14.70;4.75;;;;;;;9.55;100.00;102431.69;5001994;28;20608;-66
2023/05/25 03:12:02;;;;;;;17.65;4.15;;;;;;;9.49;100.00;102423.84;4963251;28;20062;-66
2023/05/25 03:14:29;;;;;;;22.35;4.35;;;;;;;9.42;100.00;102414.31;4992147;28;20053;-66
2023/05/25 03:16:56;;;;;;;18.73;4.60;;;;;;;9.35;100.00;102418.72;4993125;28;20046;-66
2023/05/25 03:19:23;;;;;;;11.77;3.47;;;;;;;9.24;100.00;102418.78;4993205;28;20050;-66
2023/05/25 03:21:50;;;;;;;16.08;3.90;;;;;;;9.12;100.00;102426.69;4992803;28;20054;-66
2023/05/25 03:24:16;;;;;;;13.95;3.67;;;;;;;9.28;100.00;102420.50;4993389;28;20041;-66
2023/05/25 03:26:43;;;;;;;13.77;3.90;;;;;;;9.28;100.00;102440.56;4992694;28;20405;-66
2023/05/25 03:29:11;;;;;;;17.08;3.88;;;;;;;9.31;100.00;102433.56;5003533;28;20050;-67
2023/05/25 03:31:38;;;;;;;14.98;3.88;;;;;;;9.44;100.00;102429.13;4971794;28;20093;-67
2023/05/25 03:34:05;;;;;;;12.73;3.53;;;;;;;9.63;100.00;102429.00;4991332;28;20053;-67
2023/05/25 03:36:32;;;;;;;13.80;3.05;;;;;;;9.73;100.00;102429.81;4991985;28;20057;-66
2023/05/25 03:38:59;;;;;;;18.15;3.88;;;;;;;9.82;100.00;102438.47;4992729;28;20050;-66
2023/05/25 03:41:26;;;;;;;17.45;3.35;;;;;;;9.81;100.00;102428.00;4992299;28;20069;-66
2023/05/25 03:43:53;;;;;;;14.55;4.13;;;;;;;9.69;100.00;102434.22;4991336;28;20050;-66
2023/05/25 03:46:28;;;;;;;14.52;4.53;;;;;;;9.67;100.00;102431.59;4993008;28;20046;-66
2023/05/25 03:49:05;;;;;;;12.25;3.10;;;;;;;9.54;100.00;102434.31;4995137;28;20131;-66
2023/05/25 03:51:32;;;;;;;22.30;5.10;;;;;;;9.20;100.00;102431.88;4991090;28;20050;-66
2023/05/25 03:53:58;;;;;;;23.48;4.60;;;;;;;8.91;100.00;102427.66;4980976;28;20133;-66
2023/05/25 03:56:26;;;;;;;19.95;4.28;;;;;;;9.34;100.00;102431.81;4990423;28;20093;-66
2023/05/25 03:58:53;;;;;;;12.93;3.17;;;;;;;9.52;100.00;102434.31;4994987;28;20467;-67
2023/05/25 04:01:25;;;;;;;22.00;3.90;;;;;;;9.67;100.00;102429.00;4995785;28;20416;-66
2023/05/25 04:03:51;;;;;;;14.40;3.10;;;;;;;9.74;100.00;102424.59;4998129;28;20415;-66
2023/05/25 04:06:19;;;;;;;19.45;3.95;;;;;;;9.88;100.00;102422.72;4992836;28;20105;-66
2023/05/25 04:08:46;;;;;;;13.73;3.47;;;;;;;9.96;100.00;102427.03;5000348;28;20671;-67
2023/05/25 04:11:13;;;;;;;20.45;4.50;;;;;;;9.76;100.00;102429.81;4992162;28;20050;-66
2023/05/25 04:13:40;;;;;;;25.55;5.03;;;;;;;9.79;100.00;102430.66;4991183;28;20054;-66
2023/05/25 04:16:11;;;;;;;17.67;4.38;;;;;;;10.01;100.00;102415.66;4995118;28;20063;-66
2023/05/25 04:18:38;;;;;;;17.42;3.75;;;;;;;10.22;100.00;102435.53;4992250;28;20058;-67
2023/05/25 04:21:04;;;;;;;22.33;4.85;;;;;;;9.97;100.00;102440.13;4991136;28;20057;-66
2023/05/25 04:23:32;;;;;;;24.48;5.45;;;;;;;9.66;100.00;102435.09;4991266;28;20050;-66
2023/05/25 04:26:00;;;;;;;26.52;5.18;;;;;;;9.55;100.00;102429.06;4991098;28;20483;-66
2023/05/25 04:28:27;;;;;;;17.10;3.83;;;;;;;10.13;100.00;102440.84;4991169;28;20510;-66
2023/05/25 04:30:56;;;;;;;19.20;4.75;;;;;;;10.14;100.00;102445.19;4991588;28;20073;-66
2023/05/25 04:33:23;;;;;;;17.15;4.05;;;;;;;10.43;100.00;102438.88;4991724;28;20068;-66
2023/05/25 04:35:50;;;;;;;15.68;3.38;;;;;;;10.77;100.00;102428.91;4984849;28;20399;-66
2023/05/25 04:38:17;;;;;;;18.45;3.45;;;;;;;11.37;100.00;102438.63;4991458;28;20050;-66
2023/05/25 04:40:45;;;;;;;16.10;3.45;;;;;;;11.66;100.00;102446.97;4988495;28;20125;-66
2023/05/25 04:43:12;;;;;;;20.02;4.68;;;;;;;11.63;100.00;102454.88;4990476;28;20447;-67
2023/05/25 04:45:39;;;;;;;19.60;4.20;;;;;;;11.18;100.00;102466.00;4988197;28;20050;-66
2023/05/25 04:48:06;;;;;;;16.98;4.60;;;;;;;10.79;100.00;102481.28;4990495;28;20065;-66
2023/05/25 04:50:33;;;;;;;16.58;5.05;;;;;;;10.57;100.00;102475.38;4991151;28;20054;-66
2023/05/25 04:53:00;;;;;;;18.70;4.40;;;;;;;10.43;100.00;102483.41;4988628;28;20055;-66
2023/05/25 04:55:26;;;;;;;15.95;4.03;;;;;;;10.39;100.00;102482.56;4991519;28;20054;-67
2023/05/25 04:57:53;;;;;;;17.10;3.72;;;;;;;10.57;100.00;102475.38;4990533;28;20082;-66
2023/05/25 05:00:20;;;;;;;17.48;3.95;;;;;;;10.87;100.00;102478.56;4990734;28;20054;-66
2023/05/25 05:02:47;;;;;;;15.57;3.55;;;;;;;11.21;100.00;102471.19;4991098;28;20050;-66
2023/05/25 05:05:14;;;;;;;18.80;3.92;;;;;;;11.24;100.00;102471.13;4986826;28;20046;-67
2023/05/25 05:07:42;;;;;;;20.55;4.82;;;;;;;11.30;100.00;102467.59;4983030;28;20133;-66
2023/05/25 05:10:12;;;;;;;22.40;4.03;;;;;;;11.27;100.00;102470.25;4992142;28;20104;-65
2023/05/25 05:12:40;;;;;;;17.65;4.80;;;;;;;10.98;100.00;102479.34;4973295;28;20547;-66
2023/05/25 05:15:07;;;;;;;17.17;4.43;;;;;;;10.74;100.00;102483.94;4988568;28;20092;-66
2023/05/25 05:17:34;;;;;;;20.35;4.82;;;;;;;10.66;100.00;102477.03;4990864;28;20085;-67
2023/05/25 05:20:01;;;;;;;14.48;3.90;;;;;;;10.61;100.00;102479.72;4990316;28;20050;-66
2023/05/25 05:22:27;;;;;;;18.92;4.00;;;;;;;10.50;100.00;102465.84;4978590;28;20093;-66
2023/05/25 05:24:55;;;;;;;22.20;4.78;;;;;;;10.69;100.00;102490.13;4972357;28;20074;-66
2023/05/25 05:27:22;;;;;;;15.77;4.07;;;;;;;10.61;100.00;102487.59;4988642;28;20054;-66
2023/05/25 05:29:48;;;;;;;19.13;4.30;;;;;;;10.89;100.00;102488.16;4991171;28;20053;-65
2023/05/25 05:32:15;;;;;;;20.45;4.10;;;;;;;11.27;100.00;102478.97;4974533;28;20061;-66
2023/05/25 05:34:42;;;;;;;17.35;3.70;;;;;;;11.40;100.00;102488.44;4989815;28;20039;-67
2023/05/25 05:37:08;;;;;;;14.52;4.32;;;;;;;11.38;100.00;102479.72;4989985;28;20525;-67
2023/05/25 05:39:35;;;;;;;20.55;4.40;;;;;;;11.55;100.00;102474.22;4991134;28;20404;-66
2023/05/25 05:42:02;;;;;;;16.13;3.10;;;;;;;11.56;100.00;102475.09;4981606;28;20141;-67
2023/05/25 05:44:29;;;;;;;18.60;5.00;;;;;;;11.71;100.00;102482.75;4982724;28;20499;-67
2023/05/25 05:46:59;;;;;;;14.65;3.53;;;;;;;11.62;100.00;102485.50;4985202;28;20039;-67
2023/05/25 05:49:30;;;;;;;20.48;4.40;;;;;;;11.81;100.00;102480.88;4965452;28;20096;-66
2023/05/25 05:51:58;;;;;;;20.77;4.15;;;;;;;12.04;100.00;102491.06;4989076;28;20050;-66
2023/05/25 05:54:28;;;;;;;17.00;4.50;;;;;;;13.55;100.00;102496.13;4979303;28;20125;-66
2023/05/25 05:56:55;;;;;;;17.23;4.43;;;;;;;13.76;100.00;102500.06;4993368;28;20125;-66
2023/05/25 05:59:23;;;;;;;13.75;4.05;;;;;;;14.07;100.00;102495.81;4992200;28;20061;-66
2023/05/25 06:01:49;;;;;;;26.60;4.57;;;;;;;13.90;100.00;102499.72;4990102;28;20503;-66
2023/05/25 06:04:37;;;;;;;13.95;3.65;;;;;;;14.22;100.00;102495.47;4988959;28;20492;-66
2023/05/25 06:07:04;;;;;;;14.13;3.60;;;;;;;14.60;100.00;102498.91;4970643;28;20165;-66
2023/05/25 06:09:31;;;;;;;13.85;3.05;;;;;;;14.78;100.00;102502.81;4976867;28;20058;-67
2023/05/25 06:11:57;;;;;;;10.63;3.17;;;;;;;15.68;100.00;102494.03;4987815;28;20354;-67
2023/05/25 06:14:24;;;;;;;12.90;3.90;;;;;;;15.56;100.00;102491.78;4986574;28;20085;-67
2023/05/25 06:16:54;;;;;;;12.38;3.55;;;;;;;15.80;100.00;102494.63;4983400;28;20047;-67
2023/05/25 06:19:21;;;;;;;12.90;3.13;;;;;;;16.35;100.00;102495.44;4988003;28;20514;-67
2023/05/25 06:21:47;;;;;;;12.10;3.13;;;;;;;16.71;100.00;102497.72;4987666;28;20057;-67
2023/05/25 06:24:14;;;;;;;17.63;3.05;;;;;;;17.25;100.00;102503.75;4988918;28;20419;-67
2023/05/25 06:26:41;;;;;;;13.77;3.80;;;;;;;17.15;100.00;102503.22;4990153;28;20042;-67
2023/05/25 06:29:08;;;;;;;22.15;5.28;;;;;;;15.60;100.00;102503.09;4992891;28;20046;-67
2023/05/25 06:31:35;;;;;;;11.85;3.20;;;;;;;15.42;100.00;102505.38;4994218;28;20333;-67
2023/05/25 06:34:02;;;;;;;13.32;3.67;;;;;;;14.74;100.00;102501.19;4992938;28;20057;-66
2023/05/25 06:36:29;;;;;;;16.63;3.53;;;;;;;14.53;100.00;102507.84;4991345;28;20087;-67
2023/05/25 06:38:57;;;;;;;18.80;4.88;;;;;;;14.24;100.00;102509.44;4992902;28;20105;-67
2023/05/25 06:41:25;;;;;;;17.48;4.57;;;;;;;14.44;100.00;102516.84;4995041;28;20058;-67
2023/05/25 06:43:51;;;;;;;16.02;4.47;;;;;;;15.31;100.00;102497.78;4991561;28;20133;-67
2023/05/25 06:46:18;;;;;;;24.83;5.20;;;;;;;14.85;100.00;102500.88;4992071;28;20050;-67
2023/05/25 06:48:45;;;;;;;20.65;4.60;;;;;;;14.87;100.00;102513.09;4993554;28;20519;-66
2023/05/25 06:51:12;;;;;;;23.70;6.45;;;;;;;15.50;100.00;102513.94;4992192;28;20060;-67
2023/05/25 06:53:39;;;;;;;13.63;3.75;;;;;;;15.94;100.00;102510.88;4990784;28;20054;-67
2023/05/25 06:56:06;;;;;;;17.17;4.32;;;;;;;16.26;100.00;102516.91;4991065;28;20042;-67
2023/05/25 06:58:32;;;;;;;13.57;3.33;;;;;;;15.99;100.00;102513.38;4992301;28;20085;-67
2023/05/25 07:00:59;;;;;;;17.48;4.18;;;;;;;16.07;100.00;102506.91;4991482;28;20089;-67
2023/05/25 07:03:26;;;;;;;20.98;5.40;;;;;;;16.45;100.00;102507.44;4990952;28;20408;-66
2023/05/25 07:05:53;;;;;;;15.32;3.67;;;;;;;16.29;100.00;102511.53;4991211;28;20051;-67
2023/05/25 07:08:20;;;;;;;13.18;3.60;;;;;;;15.87;100.00;102514.63;4981007;28;20303;-66
2023/05/25 07:10:47;;;;;;;20.65;4.78;;;;;;;15.77;100.00;102521.97;4986552;28;20052;-67
2023/05/25 07:13:16;;;;;;;18.90;4.05;;;;;;;15.89;100.00;102528.66;4989709;28;20132;-67
2023/05/25 07:15:51;;;;;;;17.70;4.35;;;;;;;15.75;100.00;102535.22;4988943;28;20042;-67
2023/05/25 07:18:18;;;;;;;17.52;3.92;;;;;;;15.86;100.00;102526.09;4992188;28;20141;-67
2023/05/25 07:20:45;;;;;;;16.65;4.28;;;;;;;15.59;100.00;102520.72;4975738;28;20057;-67
2023/05/25 07:23:12;;;;;;;19.30;4.63;;;;;;;15.38;100.00;102517.81;4982128;28;20107;-66
2023/05/25 07:25:40;;;;;;;17.25;3.90;;;;;;;15.74;100.00;102517.66;4989363;28;20454;-67
2023/05/25 07:28:07;;;;;;;21.55;4.55;;;;;;;16.42;100.00;102519.91;4988305;28;20061;-66
2023/05/25 07:30:48;;;;;;;22.42;4.15;;;;;;;16.67;100.00;102522.56;4982975;28;20500;-66
2023/05/25 07:33:15;;;;;;;30.23;6.25;;;;;;;15.51;100.00;102520.09;4992507;28;20088;-66
2023/05/25 07:35:45;;;;;;;22.42;5.60;;;;;;;15.30;100.00;102527.75;4990947;28;20050;-66
2023/05/25 07:38:12;;;;;;;24.50;5.18;;;;;;;15.80;100.00;102505.19;4988966;28;20050;-67
2023/05/25 07:40:48;;;;;;;17.83;4.63;;;;;;;16.28;100.00;102534.41;4991813;28;20097;-66
2023/05/25 07:43:14;;;;;;;22.85;4.65;;;;;;;16.76;100.00;102530.16;4972114;28;20046;-66
2023/05/25 07:45:41;;;;;;;20.98;5.25;;;;;;;16.59;100.00;102533.41;4990817;28;20077;-68
2023/05/25 07:48:08;;;;;;;19.65;5.05;;;;;;;16.97;100.00;102535.66;4989807;28;20480;-67
2023/05/25 07:50:47;;;;;;;22.25;5.57;;;;;;;17.31;100.00;102524.69;4993859;28;20046;-68
2023/05/25 07:53:16;;;;;;;31.30;5.13;;;;;;;16.86;100.00;102528.97;4991286;28;20412;-66
2023/05/25 07:55:58;;;;;;;15.18;3.97;;;;;;;17.31;100.00;102503.50;4969083;28;20054;-67
2023/05/25 07:58:28;;;;;;;22.55;5.63;;;;;;;16.54;100.00;102516.84;4977758;28;20050;-66
2023/05/25 08:00:55;;;;;;;18.05;4.82;;;;;;;16.50;100.00;102518.72;4988655;28;20657;-67
2023/05/25 08:03:21;;;;;;;18.38;4.88;;;;;;;15.95;100.00;102533.72;4984736;28;20039;-66
2023/05/25 08:06:05;;;;;;;18.33;4.63;;;;;;;16.24;100.00;102526.66;4975982;28;20137;-66
2023/05/25 08:08:35;;;;;;;21.90;4.90;;;;;;;16.01;100.00;102527.41;4992869;28;20042;-66
2023/05/25 08:11:02;;;;;;;20.60;4.72;;;;;;;16.66;100.00;102531.38;4992263;28;20152;-66
2023/05/25 08:13:28;;;;;;;18.13;4.25;;;;;;;16.43;100.00;102524.25;4978461;28;20054;-67
2023/05/25 08:15:55;;;;;;;17.38;4.15;;;;;;;17.06;100.00;102520.28;4991448;28;20052;-66
2023/05/25 08:18:22;;;;;;;22.55;4.82;;;;;;;16.84;100.00;102520.22;4992023;28;20165;-66
2023/05/25 08:20:49;;;;;;;22.40;5.55;;;;;;;16.00;100.00;102521.25;4992126;28;20054;-66
2023/05/25 08:23:16;;;;;;;26.17;6.63;;;;;;;15.71;100.00;102528.28;4991862;28;20141;-66
2023/05/25 08:25:43;;;;;;;19.15;4.47;;;;;;;16.26;100.00;102528.31;4992394;28;20053;-66
2023/05/25 08:28:10;;;;;;;24.70;5.55;;;;;;;16.40;100.00;102522.59;4992407;28;20054;-66
2023/05/25 08:30:38;;;;;;;20.80;4.85;;;;;;;16.65;100.00;102527.88;4989419;28;20105;-66
2023/05/25 08:33:06;;;;;;;27.80;5.45;;;;;;;16.40;100.00;102519.94;4992030;28;20065;-66
2023/05/25 08:35:32;;;;;;;24.30;5.78;;;;;;;16.89;100.00;102531.50;4973792;28;20061;-67
2023/05/25 08:37:59;;;;;;;19.80;4.43;;;;;;;17.21;100.00;102531.22;4991025;28;20054;-67
2023/05/25 08:40:29;;;;;;;22.38;5.63;;;;;;;16.96;100.00;102537.41;4992015;28;20133;-67
2023/05/25 08:42:56;;;;;;;22.27;4.60;;;;;;;17.05;100.00;102531.81;4991494;28;20459;-66
2023/05/25 08:45:23;;;;;;;27.85;5.00;;;;;;;16.35;100.00;102523.66;4991025;28;20053;-67
2023/05/25 08:48:09;;;;;;;24.05;4.60;;;;;;;16.49;100.00;102534.63;4981154;28;20140;-67
2023/05/25 08:50:38;;;;;;;19.98;4.80;;;;;;;16.91;100.00;102520.88;4991260;28;20056;-66
2023/05/25 08:53:10;;;;;;;21.55;5.53;;;;;;;16.04;100.00;102535.22;4993689;28;20496;-66
2023/05/25 08:55:40;;;;;;;29.35;6.00;;;;;;;16.31;100.00;102533.47;4991914;28;20046;-66
2023/05/25 08:58:33;;;;;;;28.17;5.90;;;;;;;16.51;100.00;102536.28;4975560;28;20054;-67
2023/05/25 09:01:06;;;;;;;29.15;6.43;;;;;;;16.49;100.00;102527.56;4982521;28;20082;-66
2023/05/25 09:03:35;;;;;;;30.27;5.60;;;;;;;16.45;100.00;102522.41;4978902;28;20149;-66
2023/05/25 09:06:02;;;;;;;29.42;6.93;;;;;;;16.41;100.00;102528.72;4977011;28;20138;-67
2023/05/25 09:08:29;;;;;;;24.45;5.55;;;;;;;16.88;100.00;102526.25;4984624;28;20054;-66
2023/05/25 09:10:56;;;;;;;25.33;6.20;;;;;;;17.21;100.00;102525.94;4988291;28;20503;-66
2023/05/25 09:13:23;;;;;;;23.05;5.25;;;;;;;17.28;100.00;102519.50;4991958;28;20460;-67
2023/05/25 09:15:51;;;;;;;31.58;6.53;;;;;;;16.73;100.00;102516.19;4988126;28;20129;-66
2023/05/25 09:18:18;;;;;;;22.08;5.40;;;;;;;16.98;100.00;102517.06;4991150;28;20133;-66
2023/05/25 09:20:45;;;;;;;24.08;5.82;;;;;;;16.95;100.00;102521.63;4990318;28;20058;-66
2023/05/25 09:23:14;;;;;;;30.35;5.57;;;;;;;16.28;100.00;102523.00;4990373;28;20093;-66
2023/05/25 09:25:41;;;;;;;31.00;6.95;;;;;;;16.12;100.00;102523.50;4990910;28;20077;-67
2023/05/25 09:28:11;;;;;;;31.40;6.68;;;;;;;16.65;100.00;102513.81;4984507;28;20066;-66
2023/05/25 09:30:40;;;;;;;20.08;5.18;;;;;;;16.62;100.00;102521.84;4991017;28;20056;-66
2023/05/25 09:33:17;;;;;;;24.88;5.68;;;;;;;16.69;100.00;102526.84;4991378;28;20089;-66
2023/05/25 09:35:45;;;;;;;24.02;5.78;;;;;;;16.48;100.00;102511.75;4990395;28;20400;-65
2023/05/25 09:38:14;;;;;;;29.63;6.00;;;;;;;17.04;100.00;102515.97;4989922;28;20054;-67
2023/05/25 09:40:41;;;;;;;30.40;5.63;;;;;;;17.20;100.00;102508.34;4990694;28;20096;-66
2023/05/25 09:43:10;;;;;;;27.23;6.00;;;;;;;16.51;100.00;102514.28;4990382;28;20484;-66
2023/05/25 09:45:37;;;;;;;20.88;4.75;;;;;;;16.85;100.00;102506.06;4989741;28;20046;-66
2023/05/25 09:48:06;;;;;;;24.08;5.90;;;;;;;15.92;100.00;102518.84;4991616;28;20058;-66
2023/05/25 09:50:34;;;;;;;21.10;5.63;;;;;;;15.86;100.00;102511.09;4991449;28;20050;-67
2023/05/25 09:53:02;;;;;;;23.30;5.85;;;;;;;15.97;100.00;102502.88;4990921;28;20058;-66
2023/05/25 09:55:32;;;;;;;26.83;6.05;;;;;;;16.41;100.00;102513.72;4990263;28;20176;-67
2023/05/25 09:58:18;;;;;;;23.52;5.50;;;;;;;16.60;100.00;102508.66;4979168;28;20059;-67
2023/05/25 10:00:45;;;;;;;26.75;5.82;;;;;;;16.70;100.00;102503.94;4991100;28;20054;-66
2023/05/25 10:03:13;;;;;;;20.70;5.40;;;;;;;16.51;100.00;102511.66;4990091;28;20559;-66
2023/05/25 10:05:41;;;;;;;20.25;4.53;;;;;;;17.01;100.00;102521.38;4994442;28;20161;-66
2023/05/25 10:08:09;;;;;;;26.58;5.80;;;;;;;16.93;100.00;102524.31;4994595;28;20052;-66
2023/05/25 10:10:37;;;;;;;20.10;5.45;;;;;;;16.97;100.00;102511.84;4996344;28;20447;-66
2023/05/25 10:13:08;;;;;;;24.98;5.50;;;;;;;17.17;100.00;102511.94;4995050;28;20069;-66
2023/05/25 10:15:38;;;;;;;25.92;6.95;;;;;;;17.35;100.00;102510.41;4993212;28;20049;-66
2023/05/25 10:18:05;;;;;;;21.58;5.03;;;;;;;17.21;100.00;102518.88;4994844;28;20046;-66
2023/05/25 10:20:33;;;;;;;27.15;5.70;;;;;;;16.71;100.00;102510.94;4995076;28;20050;-66
2023/05/25 10:23:15;;;;;;;25.83;5.53;;;;;;;16.48;100.00;102496.75;4999377;28;20069;-66
2023/05/25 10:25:47;;;;;;;31.23;6.65;;;;;;;16.75;100.00;102515.22;4994731;28;20650;-66
2023/05/25 10:28:35;;;;;;;23.42;5.18;;;;;;;17.06;100.00;102506.19;4985679;28;20069;-66
2023/05/25 10:31:03;;;;;;;25.48;5.18;;;;;;;17.15;100.00;102508.50;4987049;28;20393;-66
2023/05/25 10:33:31;;;;;;;33.97;6.50;;;;;;;16.63;100.00;102513.00;4994770;28;20042;-66
2023/05/25 10:36:02;;;;;;;27.23;5.80;;;;;;;17.73;100.00;102521.31;4998347;28;20092;-67
2023/05/25 10:38:39;;;;;;;23.83;5.35;;;;;;;16.87;100.00;102501.59;4996947;28;20054;-68
2023/05/25 10:41:09;;;;;;;23.88;5.82;;;;;;;16.73;100.00;102511.75;4993107;28;20047;-66
2023/05/25 10:43:38;;;;;;;23.02;5.70;;;;;;;16.63;100.00;102505.06;4976982;28;20400;-66
2023/05/25 10:46:05;;;;;;;19.00;5.07;;;;;;;16.61;100.00;102512.16;4993077;28;20052;-67
2023/05/25 10:48:39;;;;;;;27.77;5.78;;;;;;;16.51;100.00;102512.50;4993691;28;20081;-66
2023/05/25 10:51:09;;;;;;;25.92;6.32;;;;;;;16.97;100.00;102517.13;4994789;28;20166;-66
2023/05/25 10:53:37;;;;;;;23.45;5.60;;;;;;;17.46;100.00;102499.41;4994614;28;20050;-66
2023/05/25 10:56:06;;;;;;;28.08;5.70;;;;;;;16.94;100.00;102477.53;4993724;28;20081;-66
2023/05/25 10:58:33;;;;;;;21.17;5.38;;;;;;;17.05;100.00;102494.75;4993084;28;20096;-66
2023/05/25 11:01:10;;;;;;;21.70;5.65;;;;;;;17.15;100.00;102500.56;4973803;28;20088;-66
2023/05/25 11:03:43;;;;;;;20.17;4.72;;;;;;;17.71;100.00;102499.31;4988728;28;20089;-67
2023/05/25 11:06:11;;;;;;;22.45;5.32;;;;;;;17.14;100.00;102495.31;4993305;28;20050;-66
2023/05/25 11:08:54;;;;;;;23.88;5.57;;;;;;;17.27;100.00;102501.91;4994597;28;20054;-66
2023/05/25 11:11:41;;;;;;;20.95;5.95;;;;;;;17.40;100.00;102497.00;4994431;28;20046;-66
2023/05/25 11:14:28;;;;;;;23.75;4.25;;;;;;;17.11;100.00;102496.31;4994115;28;20077;-66
2023/05/25 11:17:13;;;;;;;18.92;4.72;;;;;;;17.91;100.00;102495.03;4994853;28;20461;-66
2023/05/25 11:19:52;;;;;;;26.17;6.07;;;;;;;17.91;100.00;102497.69;4994286;28;20365;-66